Time;durP1;ratioP1;P1;durP2;ratioP2;P2;SDS_P1;SDS_P2;PMS_P1;PMS_P2;Temp;Humidity;BMP_temperature;BMP_pressure;BME280_temperature;BME280_humidity;BME280_pressure;Samples;Min_cycle;Max_cycle;Signal;HPM_P1;HPM_P2
2022/06/05 00:01:01;;;;;;;16.23;6.70;;;;;;;23.26;81.90;100874.66;4788001;29;20055;-71
2022/06/05 00:04:13;;;;;;;11.20;6.65;;;;;;;23.26;82.27;100874.66;4788343;29;20062;-71
2022/06/05 00:07:05;;;;;;;9.98;7.13;;;;;;;23.16;83.44;100881.59;4769033;29;20618;-70
2022/06/05 00:09:43;;;;;;;12.60;6.78;;;;;;;23.18;82.74;100879.25;4788300;29;20058;-70
2022/06/05 00:12:16;;;;;;;9.57;6.43;;;;;;;23.23;82.52;100881.00;4787851;29;20074;-70
2022/06/05 00:14:44;;;;;;;10.98;6.63;;;;;;;23.27;82.49;100881.06;4788079;29;20059;-70
2022/06/05 00:17:21;;;;;;;10.00;6.63;;;;;;;23.34;82.70;100879.31;4786302;29;20051;-70
2022/06/05 00:19:52;;;;;;;13.75;7.05;;;;;;;23.33;82.42;100877.69;4787688;29;20047;-70
2022/06/05 00:22:20;;;;;;;11.40;7.07;;;;;;;23.26;82.37;100863.50;4787546;29;20047;-71
2022/06/05 00:24:48;;;;;;;8.10;5.95;;;;;;;23.26;80.49;100860.72;4787780;29;20403;-70
2022/06/05 00:27:40;;;;;;;8.23;5.93;;;;;;;23.39;78.68;100855.06;4787685;29;20048;-70
2022/06/05 00:30:21;;;;;;;13.15;5.93;;;;;;;23.41;78.07;100855.53;4786491;29;20059;-70
2022/06/05 00:32:56;;;;;;;11.23;6.38;;;;;;;23.39;76.58;100857.84;4786460;29;20054;-71
2022/06/05 00:35:30;;;;;;;10.60;5.70;;;;;;;23.39;76.18;100861.47;4787811;29;20063;-71
2022/06/05 00:38:14;;;;;;;11.98;6.00;;;;;;;23.47;75.83;100860.44;4787566;29;20430;-70
2022/06/05 00:40:57;;;;;;;10.82;5.90;;;;;;;23.46;75.01;100860.84;4787445;29;20043;-71
2022/06/05 00:43:25;;;;;;;13.60;6.00;;;;;;;23.39;75.31;100861.47;4788081;29;20414;-71
2022/06/05 00:45:55;;;;;;;10.02;6.47;;;;;;;23.27;75.45;100856.75;4787284;29;20521;-71
2022/06/05 00:48:23;;;;;;;12.95;7.15;;;;;;;23.31;76.16;100871.63;4787617;29;20059;-71
2022/06/05 00:50:51;;;;;;;9.98;6.15;;;;;;;23.27;75.96;100864.31;4787296;29;20048;-71
2022/06/05 00:53:19;;;;;;;11.80;6.95;;;;;;;23.33;76.22;100868.50;4787440;29;20055;-71
2022/06/05 00:55:49;;;;;;;9.20;6.03;;;;;;;23.33;76.15;100868.50;4787309;29;20059;-71
2022/06/05 00:58:19;;;;;;;14.07;7.03;;;;;;;23.37;76.53;100866.63;4787510;29;20055;-71
2022/06/05 01:00:52;;;;;;;10.70;7.18;;;;;;;23.33;77.05;100863.75;4787163;29;20055;-71
2022/06/05 01:03:21;;;;;;;9.80;6.85;;;;;;;23.30;77.75;100870.00;4787339;29;20055;-71
2022/06/05 01:05:49;;;;;;;12.10;7.50;;;;;;;23.34;78.84;100865.34;4787402;29;20510;-71
2022/06/05 01:08:17;;;;;;;18.20;8.32;;;;;;;23.23;80.22;100865.03;4786917;29;20573;-71
2022/06/05 01:11:26;;;;;;;12.98;8.20;;;;;;;23.18;82.23;100862.50;4787497;29;20503;-71
2022/06/05 01:14:16;;;;;;;17.08;9.30;;;;;;;23.12;83.56;100860.38;4767063;30;20166;-71
2022/06/05 01:16:53;;;;;;;14.10;9.10;;;;;;;22.99;84.62;100856.84;4786967;29;20047;-71
2022/06/05 01:19:33;;;;;;;14.88;9.40;;;;;;;23.11;84.50;100856.75;4786962;29;20511;-71
2022/06/05 01:22:36;;;;;;;16.05;9.75;;;;;;;23.08;85.19;100858.28;4787047;29;20055;-71
2022/06/05 01:25:45;;;;;;;15.75;9.05;;;;;;;23.12;85.42;100852.00;4787029;29;20503;-70
2022/06/05 01:28:19;;;;;;;16.98;9.55;;;;;;;23.01;85.92;100852.50;4786859;29;20062;-70
2022/06/05 01:31:01;;;;;;;16.55;10.70;;;;;;;22.95;86.82;100848.38;4787131;29;20062;-71
2022/06/05 01:33:31;;;;;;;14.77;9.90;;;;;;;22.88;86.95;100843.41;4787072;29;20402;-71
2022/06/05 01:36:04;;;;;;;14.57;10.00;;;;;;;22.86;87.90;100853.34;4786602;29;20063;-71
2022/06/05 01:38:43;;;;;;;15.55;10.30;;;;;;;22.87;87.98;100849.38;4786811;29;20067;-71
2022/06/05 01:41:18;;;;;;;17.80;10.85;;;;;;;22.87;88.30;100844.56;4786963;29;20075;-70
2022/06/05 01:43:50;;;;;;;16.42;11.13;;;;;;;22.94;87.70;100843.97;4787448;29;20510;-70
2022/06/05 01:46:33;;;;;;;20.08;12.00;;;;;;;22.85;88.12;100832.16;4789802;29;20399;-70
2022/06/05 01:49:05;;;;;;;17.55;10.63;;;;;;;22.77;88.70;100837.56;4790252;29;20063;-70
2022/06/05 01:51:43;;;;;;;19.33;11.75;;;;;;;22.66;88.95;100837.28;4789219;29;20066;-70
2022/06/05 01:54:19;;;;;;;16.15;10.98;;;;;;;22.58;89.38;100829.06;4790633;29;20074;-71
2022/06/05 01:56:52;;;;;;;20.13;12.18;;;;;;;22.54;89.68;100840.91;4790183;29;20051;-70
2022/06/05 02:00:08;;;;;;;18.83;11.30;;;;;;;22.45;89.64;100826.31;4790018;29;20078;-70
2022/06/05 02:02:47;;;;;;;18.50;10.73;;;;;;;22.48;88.54;100825.59;4789382;29;20063;-71
2022/06/05 02:05:20;;;;;;;17.23;11.05;;;;;;;22.49;88.74;100815.25;4790055;29;20526;-71
2022/06/05 02:07:52;;;;;;;18.70;11.45;;;;;;;22.54;88.27;100796.31;4790342;29;20062;-70
2022/06/05 02:10:52;;;;;;;18.33;11.23;;;;;;;22.51;88.23;100808.16;4788872;29;20496;-71
2022/06/05 02:13:20;;;;;;;19.80;10.02;;;;;;;22.37;88.63;100807.75;4789956;29;20047;-70
2022/06/05 02:15:48;;;;;;;22.00;11.43;;;;;;;22.29;89.17;100807.56;4789947;29;20055;-70
2022/06/05 02:18:16;;;;;;;17.17;9.95;;;;;;;22.34;88.46;100800.91;4789884;29;20063;-70
2022/06/05 02:20:44;;;;;;;18.42;10.05;;;;;;;22.34;87.91;100797.31;4789736;29;20051;-70
2022/06/05 02:23:16;;;;;;;15.95;10.07;;;;;;;22.39;87.72;100797.88;4789863;29;20530;-71
2022/06/05 02:25:44;;;;;;;14.77;9.30;;;;;;;22.32;87.41;100803.25;4789720;29;20066;-71
2022/06/05 02:28:13;;;;;;;15.93;10.00;;;;;;;22.32;87.84;100802.41;4789981;29;20403;-71
2022/06/05 02:31:14;;;;;;;13.88;9.82;;;;;;;22.24;88.18;100804.22;4789754;29;20043;-71
2022/06/05 02:34:16;;;;;;;20.08;9.90;;;;;;;22.21;87.69;100794.59;4789930;29;20051;-71
2022/06/05 02:36:46;;;;;;;16.83;9.73;;;;;;;22.23;87.72;100794.22;4789333;29;20062;-71
2022/06/05 02:39:45;;;;;;;17.42;9.27;;;;;;;22.20;87.79;100792.16;4789278;29;20051;-70
2022/06/05 02:42:18;;;;;;;16.38;9.88;;;;;;;22.15;88.14;100793.22;4787101;29;20078;-71
2022/06/05 02:45:19;;;;;;;13.80;9.05;;;;;;;22.28;87.74;100794.78;4788599;29;20051;-71
2022/06/05 02:48:04;;;;;;;14.65;9.77;;;;;;;22.31;87.59;100784.09;4788176;29;20407;-71
2022/06/05 02:50:43;;;;;;;13.32;9.32;;;;;;;22.33;87.56;100778.97;4789020;29;20062;-71
2022/06/05 02:53:13;;;;;;;21.58;10.32;;;;;;;22.27;87.34;100770.03;4789346;29;20408;-70
2022/06/05 02:55:43;;;;;;;15.77;9.98;;;;;;;22.25;87.59;100759.25;4789176;29;20055;-70
2022/06/05 02:58:13;;;;;;;13.68;8.55;;;;;;;22.17;87.83;100749.06;4789525;29;20059;-71
2022/06/05 03:03:27;;;;;;;17.00;9.82;;;;;;;22.07;88.03;100760.72;4788917;29;20530;-71
2022/06/05 03:03:30;;;;;;;15.73;9.63;;;;;;;22.10;87.45;100771.19;4789337;29;20410;-71
2022/06/05 03:06:01;;;;;;;16.10;9.90;;;;;;;22.10;87.47;100758.03;4789369;29;20100;-71
2022/06/05 03:08:30;;;;;;;17.13;9.90;;;;;;;22.06;87.92;100756.31;4789037;29;20423;-71
2022/06/05 03:10:58;;;;;;;12.75;8.95;;;;;;;22.03;88.08;100749.47;4785006;29;20059;-71
2022/06/05 03:13:26;;;;;;;15.13;9.52;;;;;;;22.19;86.65;100746.72;4785127;29;20056;-71
2022/06/05 03:15:54;;;;;;;19.08;9.07;;;;;;;22.21;85.91;100758.34;4789153;29;20043;-71
2022/06/05 03:18:21;;;;;;;16.10;9.07;;;;;;;22.08;86.36;100756.78;4788797;29;20058;-71
2022/06/05 03:20:49;;;;;;;15.82;8.43;;;;;;;22.06;86.64;100757.16;4788888;29;20052;-71
2022/06/05 03:23:17;;;;;;;15.60;8.55;;;;;;;22.17;86.16;100751.03;4789444;29;20055;-70
2022/06/05 03:25:44;;;;;;;14.13;7.95;;;;;;;22.10;85.91;100743.31;4788572;29;20522;-71
2022/06/05 03:28:12;;;;;;;17.35;8.23;;;;;;;21.93;86.94;100773.09;4788667;29;20518;-71
2022/06/05 03:30:42;;;;;;;15.57;8.10;;;;;;;21.88;87.75;100787.25;4789129;29;20055;-70
2022/06/05 03:33:11;;;;;;;16.25;8.13;;;;;;;21.90;87.71;100801.66;4788800;29;20055;-71
2022/06/05 03:35:42;;;;;;;13.70;8.57;;;;;;;22.02;87.49;100807.19;4788767;29;20063;-71
2022/06/05 03:38:11;;;;;;;12.73;9.00;;;;;;;22.01;88.04;100818.69;4788628;29;20561;-71
2022/06/05 03:40:41;;;;;;;15.18;8.63;;;;;;;21.98;88.61;100817.41;4788349;29;20050;-71
2022/06/05 03:43:09;;;;;;;14.57;9.63;;;;;;;21.95;89.28;100818.13;4788625;29;20047;-71
2022/06/05 03:45:36;;;;;;;15.20;9.05;;;;;;;21.96;89.18;100828.13;4787962;29;20059;-71
2022/06/05 03:48:04;;;;;;;16.48;8.98;;;;;;;22.04;89.11;100831.09;4788335;29;20055;-70
2022/06/05 03:50:32;;;;;;;16.85;9.30;;;;;;;21.99;89.04;100837.72;4786720;29;20051;-71
2022/06/05 03:53:00;;;;;;;17.00;9.45;;;;;;;22.18;88.28;100850.22;4788110;29;20066;-72
2022/06/05 03:55:28;;;;;;;17.50;9.57;;;;;;;22.31;87.77;100862.94;4788517;29;20059;-71
2022/06/05 03:57:56;;;;;;;14.18;8.60;;;;;;;22.35;87.57;100857.47;4788090;29;20039;-71
2022/06/05 04:00:24;;;;;;;15.88;8.77;;;;;;;22.46;86.48;100843.84;4788328;29;20059;-71
2022/06/05 04:02:53;;;;;;;15.90;8.82;;;;;;;22.64;85.71;100836.81;4786685;29;20047;-71
2022/06/05 04:05:21;;;;;;;12.88;8.13;;;;;;;22.68;84.91;100846.09;4788263;29;20063;-71
2022/06/05 04:07:49;;;;;;;14.40;9.00;;;;;;;22.77;84.38;100857.09;4787506;29;20054;-71
2022/06/05 04:10:19;;;;;;;17.05;9.73;;;;;;;22.74;85.08;100859.78;4788072;29;20051;-71
2022/06/05 04:12:47;;;;;;;14.50;8.32;;;;;;;22.69;84.96;100850.50;4787875;29;20055;-71
2022/06/05 04:15:15;;;;;;;16.48;8.88;;;;;;;22.50;86.06;100844.75;4787749;29;20526;-71
2022/06/05 04:17:42;;;;;;;16.15;9.38;;;;;;;22.59;85.51;100837.09;4788040;29;20062;-70
2022/06/05 04:20:12;;;;;;;15.30;9.05;;;;;;;22.49;86.75;100831.97;4787521;29;20542;-71
2022/06/05 04:22:40;;;;;;;14.65;9.30;;;;;;;22.50;86.37;100836.38;4787843;29;20074;-71
2022/06/05 04:25:11;;;;;;;14.57;8.77;;;;;;;22.66;85.10;100830.88;4787582;29;20135;-71
2022/06/05 04:27:40;;;;;;;13.93;9.00;;;;;;;22.72;84.44;100840.59;4776410;29;20055;-71
2022/06/05 04:30:08;;;;;;;14.10;8.13;;;;;;;22.77;84.57;100843.13;4787746;29;20403;-71
2022/06/05 04:32:36;;;;;;;13.32;8.07;;;;;;;22.99;83.31;100865.22;4787489;29;20058;-71
2022/06/05 04:35:05;;;;;;;11.73;7.75;;;;;;;22.98;83.68;100855.22;4783456;29;20058;-71
2022/06/05 04:37:33;;;;;;;15.90;7.85;;;;;;;22.92;83.87;100849.09;4785800;29;20051;-71
2022/06/05 04:40:00;;;;;;;14.77;8.60;;;;;;;23.00;83.83;100853.69;4787545;29;20047;-71
2022/06/05 04:42:28;;;;;;;13.88;8.40;;;;;;;23.12;83.23;100852.78;4786308;29;20058;-71
2022/06/05 04:44:57;;;;;;;10.90;8.13;;;;;;;23.15;82.19;100848.47;4787487;29;20047;-71
2022/06/05 04:47:25;;;;;;;12.52;8.38;;;;;;;23.28;82.30;100863.97;4787218;29;20059;-71
2022/06/05 04:49:53;;;;;;;13.05;8.40;;;;;;;23.41;81.61;100877.88;4787517;29;20055;-71
2022/06/05 04:52:21;;;;;;;14.50;8.10;;;;;;;23.39;81.92;100878.22;4787487;29;20067;-72
2022/06/05 04:54:48;;;;;;;12.32;7.68;;;;;;;23.49;80.71;100883.25;4787403;29;20054;-71
2022/06/05 04:57:16;;;;;;;10.63;7.20;;;;;;;23.62;79.84;100885.94;4785992;29;20063;-71
2022/06/05 04:59:44;;;;;;;15.18;8.30;;;;;;;23.71;79.94;100882.97;4786902;29;20055;-71
2022/06/05 05:02:11;;;;;;;10.50;7.50;;;;;;;23.58;81.09;100885.88;4787525;29;20066;-71
2022/06/05 05:04:39;;;;;;;14.27;7.90;;;;;;;23.78;80.21;100887.88;4787037;29;20062;-71
2022/06/05 05:07:07;;;;;;;10.32;7.30;;;;;;;23.83;80.19;100880.06;4787341;29;20062;-71
2022/06/05 05:09:35;;;;;;;14.70;8.18;;;;;;;24.03;79.18;100877.28;4785850;29;20055;-71
2022/06/05 05:12:03;;;;;;;12.02;7.05;;;;;;;24.18;78.99;100880.44;4786923;29;20411;-71
2022/06/05 05:14:31;;;;;;;12.75;7.53;;;;;;;24.53;76.66;100882.31;4787328;29;20070;-71
2022/06/05 05:16:59;;;;;;;11.18;7.53;;;;;;;24.82;73.85;100882.91;4786845;29;20074;-71
2022/06/05 05:19:26;;;;;;;11.93;6.65;;;;;;;25.14;71.97;100888.31;4786859;29;20048;-70
2022/06/05 05:21:54;;;;;;;12.90;6.90;;;;;;;25.15;71.99;100875.94;4787195;29;20066;-71
2022/06/05 05:24:22;;;;;;;9.68;6.57;;;;;;;25.14;72.01;100876.28;4785590;29;20066;-71
2022/06/05 05:26:50;;;;;;;11.13;6.72;;;;;;;25.00;73.00;100876.84;4787136;29;20059;-71
2022/06/05 05:29:17;;;;;;;15.00;7.10;;;;;;;25.12;71.76;100867.47;4787398;29;20513;-71
2022/06/05 05:31:45;;;;;;;9.35;5.90;;;;;;;25.12;72.29;100873.06;4786970;29;20554;-71
2022/06/05 05:34:14;;;;;;;12.07;6.18;;;;;;;25.22;71.36;100869.66;4796875;29;20047;-71
2022/06/05 05:36:42;;;;;;;8.73;6.03;;;;;;;25.38;70.01;100865.88;4794807;29;20067;-71
2022/06/05 05:42:05;;;;;;;9.10;6.15;;;;;;;25.29;70.44;100846.53;4786842;29;20436;-70
2022/06/05 05:44:35;;;;;;;;;;;;;;;25.43;70.38;100851.56;4786971;29;20043;-70
2022/06/05 05:47:06;;;;;;;11.45;6.97;;;;;;;25.71;69.19;100850.41;4786786;29;20286;-70
2022/06/05 05:49:34;;;;;;;12.32;6.72;;;;;;;26.00;67.68;100853.63;4785898;29;20052;-70
2022/06/05 05:52:04;;;;;;;8.82;5.80;;;;;;;26.14;66.50;100864.19;4785716;29;20055;-71
2022/06/05 05:54:33;;;;;;;13.75;6.97;;;;;;;26.14;67.93;100861.38;4786430;29;20054;-70
2022/06/05 05:57:02;;;;;;;11.13;6.07;;;;;;;26.10;66.75;100860.56;4785457;29;20500;-81
2022/06/05 05:59:30;;;;;;;8.75;5.60;;;;;;;26.05;66.49;100863.69;4770019;29;20416;-79
2022/06/05 06:01:58;;;;;;;8.55;5.50;;;;;;;25.94;66.96;100866.34;4768017;30;20052;-80
2022/06/05 06:04:26;;;;;;;12.95;6.03;;;;;;;25.90;66.37;100872.72;4766826;29;20051;-80
2022/06/05 06:06:54;;;;;;;8.35;5.72;;;;;;;25.85;66.22;100866.63;4786417;29;20052;-80
2022/06/05 06:09:22;;;;;;;10.63;6.00;;;;;;;25.88;66.88;100860.25;4785369;29;20058;-81
2022/06/05 06:11:51;;;;;;;10.20;6.38;;;;;;;25.94;67.25;100861.53;4786514;29;20055;-81
2022/06/05 06:14:19;;;;;;;10.07;5.50;;;;;;;26.02;66.40;100849.25;4788414;29;20054;-82
2022/06/05 06:16:47;;;;;;;11.15;6.18;;;;;;;26.08;66.11;100838.50;4797957;29;20495;-82
2022/06/05 06:19:15;;;;;;;13.20;6.13;;;;;;;26.22;66.43;100840.69;4792189;29;20064;-82
2022/06/05 06:21:43;;;;;;;11.38;5.03;;;;;;;26.19;64.90;100840.63;4793370;29;20043;-81
2022/06/05 06:24:11;;;;;;;10.55;5.85;;;;;;;26.28;65.95;100844.78;4787462;29;20051;-80
2022/06/05 06:26:40;;;;;;;6.70;5.25;;;;;;;26.28;65.09;100830.75;4793675;29;20088;-81
2022/06/05 06:29:10;;;;;;;13.25;5.93;;;;;;;26.30;65.42;100831.19;4796953;29;20095;-81
2022/06/05 06:31:39;;;;;;;10.82;5.80;;;;;;;26.30;64.89;100831.19;4797610;29;20038;-82
2022/06/05 06:34:07;;;;;;;8.60;6.63;;;;;;;26.31;65.01;100829.19;4788469;29;20055;-81
2022/06/05 06:36:35;;;;;;;10.10;6.13;;;;;;;26.37;65.54;100816.44;4789189;29;20054;-81
2022/06/05 06:39:20;;;;;;;8.10;5.80;;;;;;;26.50;66.14;100813.34;4791433;29;20436;-83
2022/06/05 06:41:48;;;;;;;7.85;6.05;;;;;;;26.60;65.09;100817.47;4800222;29;20055;-82
2022/06/05 06:44:17;;;;;;;9.32;6.35;;;;;;;26.64;63.94;100805.06;4792545;29;20047;-82
2022/06/05 06:46:45;;;;;;;11.45;5.75;;;;;;;26.64;63.22;100793.84;4788378;29;20046;-83
2022/06/05 06:49:14;;;;;;;8.70;6.28;;;;;;;26.68;63.21;100796.69;4786897;29;20411;-82
2022/06/05 06:51:42;;;;;;;9.25;6.28;;;;;;;26.75;63.45;100791.16;4788767;29;20055;-82
2022/06/05 06:54:10;;;;;;;10.73;5.90;;;;;;;26.78;63.42;100796.00;4787515;29;20058;-82
2022/06/05 06:56:38;;;;;;;11.55;6.63;;;;;;;26.86;63.25;100796.03;4787721;29;20051;-82
2022/06/05 06:59:06;;;;;;;8.85;6.55;;;;;;;26.95;62.80;100782.53;4787385;29;20539;-82
2022/06/05 07:01:34;;;;;;;11.90;5.80;;;;;;;27.01;63.09;100791.38;4788748;29;20047;-83
2022/06/05 07:04:02;;;;;;;8.48;5.22;;;;;;;27.15;62.29;100776.66;4787014;29;20082;-83
2022/06/05 07:06:30;;;;;;;8.80;6.15;;;;;;;27.32;63.07;100775.97;4788553;29;20074;-82
2022/06/05 07:08:57;;;;;;;8.75;6.30;;;;;;;27.40;63.78;100773.19;4787570;29;20050;-84
2022/06/05 07:11:25;;;;;;;7.50;6.28;;;;;;;27.46;63.82;100760.41;4788422;29;20051;-82
2022/06/05 07:13:53;;;;;;;12.18;6.93;;;;;;;27.58;63.46;100753.66;4788093;29;20061;-83
2022/06/05 07:16:21;;;;;;;12.70;7.47;;;;;;;27.62;64.12;100741.25;4787455;29;20052;-83
2022/06/05 07:18:50;;;;;;;15.18;7.88;;;;;;;27.62;65.08;100740.44;4788731;29;20491;-84
2022/06/05 07:21:21;;;;;;;10.23;7.63;;;;;;;27.83;63.54;100734.09;4788015;29;20491;-84
2022/06/05 07:23:54;;;;;;;12.35;7.65;;;;;;;27.90;63.14;100738.94;4777320;29;20051;-83
2022/06/05 07:26:24;;;;;;;12.85;7.60;;;;;;;27.88;63.50;100730.09;4787645;29;20059;-84
2022/06/05 07:28:56;;;;;;;9.95;7.25;;;;;;;27.94;63.13;100716.47;4788741;29;20047;-84
2022/06/05 07:31:28;;;;;;;8.65;5.97;;;;;;;28.00;63.07;100709.25;4789152;29;20058;-84
2022/06/05 07:33:57;;;;;;;11.30;6.30;;;;;;;28.19;62.19;100712.91;4792940;29;20043;-85
2022/06/05 07:36:27;;;;;;;9.30;6.93;;;;;;;28.37;60.41;100729.84;4801919;29;20062;-84
2022/06/05 07:38:56;;;;;;;10.50;6.88;;;;;;;28.25;59.71;100714.16;4796858;29;20066;-85
2022/06/05 07:41:27;;;;;;;12.55;6.65;;;;;;;28.29;59.67;100731.84;4787733;29;20047;-85
2022/06/05 07:43:56;;;;;;;8.85;6.40;;;;;;;28.30;59.72;100727.84;4787540;29;20058;-84
2022/06/05 07:46:24;;;;;;;9.98;6.38;;;;;;;28.41;58.50;100728.66;4787068;29;20059;-85
2022/06/05 07:48:52;;;;;;;9.15;6.53;;;;;;;28.48;58.65;100724.25;4788180;29;20055;-84
2022/06/05 07:54:28;;;;;;;7.43;5.80;;;;;;;28.64;58.52;100719.00;4788373;29;20043;-84
2022/06/05 07:57:05;;;;;;;7.13;5.85;;;;;;;28.69;58.10;100709.38;4788458;29;20047;-84
2022/06/05 07:59:38;;;;;;;10.07;7.38;;;;;;;28.62;57.43;100704.53;4786859;29;20066;-84
2022/06/05 08:02:27;;;;;;;8.95;5.90;;;;;;;28.77;57.10;100716.59;4788352;29;20051;-84
2022/06/05 08:04:56;;;;;;;12.73;6.30;;;;;;;28.84;56.57;100704.53;4788363;29;20050;-84
2022/06/05 08:07:25;;;;;;;8.43;6.32;;;;;;;28.78;55.50;100709.75;4786907;29;20047;-84
2022/06/05 08:09:53;;;;;;;10.25;6.47;;;;;;;28.77;55.64;100698.88;4788022;29;20059;-84
2022/06/05 08:12:24;;;;;;;10.32;6.43;;;;;;;28.86;56.04;100693.69;4787012;29;20062;-84
2022/06/05 08:14:53;;;;;;;10.63;6.75;;;;;;;28.91;55.92;100698.91;4788042;29;20055;-86
2022/06/05 08:17:25;;;;;;;8.50;6.20;;;;;;;29.02;56.29;100698.09;4787854;29;20051;-83
2022/06/05 08:19:54;;;;;;;10.02;5.63;;;;;;;29.07;55.66;100695.66;4787835;29;20051;-83
2022/06/05 08:22:24;;;;;;;6.32;5.72;;;;;;;29.12;55.82;100697.25;4786705;29;20403;-84
2022/06/05 08:24:52;;;;;;;7.45;5.68;;;;;;;29.22;56.03;100685.16;4788428;29;20047;-83
2022/06/05 08:27:24;;;;;;;7.38;6.28;;;;;;;29.25;55.45;100694.81;4787609;29;20058;-84
2022/06/05 08:29:55;;;;;;;9.88;6.10;;;;;;;29.29;56.15;100694.78;4787851;29;20047;-84
2022/06/05 08:32:25;;;;;;;10.85;7.13;;;;;;;29.36;56.07;100689.13;4787740;29;20099;-83
2022/06/05 08:34:53;;;;;;;11.27;6.68;;;;;;;29.40;55.96;100689.13;4787786;29;20043;-83
2022/06/05 08:44:00;;;;;;;10.75;6.28;;;;;;;29.46;55.74;100677.03;4776862;29;20047;-85
2022/06/05 08:46:58;;;;;;;9.75;7.20;;;;;;;29.53;56.29;100675.41;4767467;30;20048;-82
2022/06/05 08:49:38;;;;;;;10.30;6.90;;;;;;;29.68;55.70;100668.50;4767295;30;20145;-82
2022/06/05 08:52:26;;;;;;;9.45;6.28;;;;;;;29.66;54.29;100662.44;4785493;29;20051;-84
2022/06/05 08:55:14;;;;;;;8.07;6.20;;;;;;;29.93;53.98;100659.09;4787272;29;20051;-83
2022/06/05 08:57:56;;;;;;;9.05;6.05;;;;;;;30.10;53.79;100662.25;4787204;29;20492;-83
2022/06/05 09:00:34;;;;;;;8.65;5.60;;;;;;;30.12;54.06;100669.06;4786969;29;20068;-83
2022/06/05 09:03:19;;;;;;;9.70;5.63;;;;;;;30.18;52.55;100658.13;4786164;29;20059;-83
2022/06/05 09:05:51;;;;;;;8.95;6.10;;;;;;;30.26;52.53;100656.06;4785974;29;20079;-82
2022/06/05 09:08:31;;;;;;;6.53;5.60;;;;;;;30.23;52.26;100651.25;4786942;29;20063;-83
2022/06/05 09:11:07;;;;;;;8.32;6.05;;;;;;;30.10;51.73;100665.06;4787367;29;20051;-84
2022/06/05 09:13:45;;;;;;;7.78;5.53;;;;;;;30.24;50.96;100652.88;4787084;29;20051;-82
2022/06/05 09:16:16;;;;;;;7.15;5.20;;;;;;;30.36;50.19;100663.66;4787216;29;20047;-82
2022/06/05 09:18:47;;;;;;;9.38;4.90;;;;;;;30.32;49.18;100671.34;4785758;29;20407;-83
2022/06/05 09:21:22;;;;;;;10.07;5.90;;;;;;;30.54;49.98;100668.34;4787186;29;20051;-82
2022/06/05 09:23:56;;;;;;;8.45;5.85;;;;;;;30.63;49.63;100673.50;4786999;29;20051;-82
2022/06/05 09:26:44;;;;;;;12.35;6.78;;;;;;;30.57;50.00;100668.31;4787201;29;21054;-83
2022/06/05 09:29:33;;;;;;;9.75;6.32;;;;;;;30.57;49.93;100679.59;4786774;29;20059;-84
2022/06/05 09:32:29;;;;;;;9.30;5.72;;;;;;;30.42;49.36;100678.09;4786752;29;20051;-85
2022/06/05 09:35:13;;;;;;;9.63;5.93;;;;;;;30.34;50.28;100682.22;4786816;29;20058;-84
2022/06/05 09:37:48;;;;;;;;;;;;;;;30.37;50.69;100685.00;4787177;29;20078;-83
2022/06/05 09:40:18;;;;;;;9.52;5.70;;;;;;;30.39;51.18;100684.59;4786807;29;19933;-83
2022/06/05 09:43:07;;;;;;;10.95;7.20;;;;;;;30.42;50.65;100687.41;4786679;29;20503;-85
2022/06/05 09:45:56;;;;;;;13.27;6.50;;;;;;;30.30;51.37;100685.06;4781042;29;20071;-84
2022/06/05 09:48:33;;;;;;;13.10;6.50;;;;;;;30.23;51.43;100702.84;4784716;29;20117;-83
2022/06/05 09:51:11;;;;;;;9.30;6.25;;;;;;;30.15;51.38;100699.25;4776798;29;20047;-86
2022/06/05 09:54:05;;;;;;;8.45;5.85;;;;;;;30.06;52.41;100709.38;4785404;29;20043;-82
2022/06/05 09:58:24;;;;;;;10.65;6.20;;;;;;;30.12;50.76;100707.75;4778343;29;20044;-83
2022/06/05 09:59:33;;;;;;;8.43;6.75;;;;;;;30.24;50.93;100690.34;4786563;29;20054;-82
2022/06/05 10:02:04;;;;;;;8.55;5.90;;;;;;;30.52;50.32;100704.66;4786518;29;20402;-82
2022/06/05 10:04:34;;;;;;;15.15;6.93;;;;;;;30.58;50.45;100712.25;4786564;29;20047;-84
2022/06/05 10:07:31;;;;;;;9.40;7.05;;;;;;;30.59;50.89;100710.22;4788952;29;20044;-82
2022/06/05 10:10:04;;;;;;;14.98;7.80;;;;;;;30.78;49.86;100714.53;4788225;29;20055;-83
2022/06/05 10:12:58;;;;;;;12.80;6.80;;;;;;;30.53;50.05;100703.41;4790023;29;20062;-84
2022/06/05 10:15:40;;;;;;;8.15;6.45;;;;;;;30.40;51.03;100715.22;4789817;29;20058;-82
2022/06/05 10:18:20;;;;;;;10.55;7.68;;;;;;;30.63;50.30;100701.75;4789860;29;20067;-83
2022/06/05 10:21:06;;;;;;;10.80;6.55;;;;;;;30.76;50.20;100704.88;4788785;29;20451;-82
2022/06/05 10:23:51;;;;;;;8.02;6.18;;;;;;;30.72;49.98;100718.25;4789632;29;20058;-81
2022/06/05 10:26:37;;;;;;;12.07;7.18;;;;;;;30.67;49.32;100700.50;4789842;29;20054;-83
2022/06/05 10:29:10;;;;;;;9.38;6.80;;;;;;;30.81;48.59;100715.72;4789831;29;20062;-82
2022/06/05 10:31:43;;;;;;;8.40;5.80;;;;;;;30.86;48.89;100720.09;4794570;29;20415;-84
2022/06/05 10:34:28;;;;;;;11.60;6.68;;;;;;;30.87;49.14;100719.69;4807421;29;20043;-85
2022/06/05 10:37:03;;;;;;;9.32;5.75;;;;;;;30.90;48.94;100712.41;4799758;29;20403;-82
2022/06/05 10:39:50;;;;;;;7.75;5.50;;;;;;;31.15;48.20;100711.34;4773685;29;20040;-82
2022/06/05 10:42:28;;;;;;;9.60;5.13;;;;;;;31.22;48.11;100709.25;4786637;29;20066;-83
2022/06/05 10:45:14;;;;;;;7.28;5.53;;;;;;;31.38;48.01;100703.03;4790009;29;20043;-81
2022/06/05 10:48:00;;;;;;;7.85;5.53;;;;;;;31.44;47.78;100699.75;4789176;29;20050;-83
2022/06/05 10:50:37;;;;;;;7.93;5.78;;;;;;;31.19;47.37;100683.84;4789417;29;20052;-83
2022/06/05 10:53:34;;;;;;;7.75;5.70;;;;;;;30.88;47.98;100676.09;4789349;29;20054;-82
2022/06/05 10:56:22;;;;;;;9.32;6.80;;;;;;;30.82;49.08;100664.47;4789091;29;20062;-82
2022/06/05 10:59:05;;;;;;;8.55;6.53;;;;;;;31.02;48.73;100663.06;4788724;29;20047;-82
2022/06/05 11:01:52;;;;;;;8.68;5.55;;;;;;;30.99;48.52;100653.41;4788984;29;20396;-81
2022/06/05 11:04:37;;;;;;;8.68;5.95;;;;;;;31.18;48.93;100649.13;4788854;29;20048;-81
2022/06/05 11:07:22;;;;;;;10.65;5.78;;;;;;;31.21;48.24;100645.47;4788006;29;20063;-85
2022/06/05 11:09:57;;;;;;;7.13;6.00;;;;;;;31.09;48.38;100651.69;4788961;29;20062;-82
2022/06/05 11:16:01;;;;;;;8.52;5.55;;;;;;;31.19;47.81;100632.97;4788699;29;20047;-82
2022/06/05 11:18:46;;;;;;;10.68;6.20;;;;;;;30.88;48.84;100630.13;4785754;29;20055;-87
2022/06/05 11:21:18;;;;;;;6.57;5.50;;;;;;;31.08;48.53;100633.13;4788976;29;20051;-84
2022/06/05 11:23:54;;;;;;;11.30;5.65;;;;;;;31.15;48.53;100635.03;4791384;29;20051;-86
2022/06/05 11:26:41;;;;;;;11.90;6.05;;;;;;;30.93;49.25;100643.78;4797377;29;20047;-85
2022/06/05 11:29:16;;;;;;;7.45;5.38;;;;;;;30.80;49.83;100630.16;4786839;29;20055;-84
2022/06/05 11:32:21;;;;;;;7.18;5.40;;;;;;;30.80;49.85;100623.75;4788162;29;20077;-88
2022/06/05 11:34:58;;;;;;;10.30;5.32;;;;;;;31.15;49.02;100612.44;4784740;29;20496;-85
2022/06/05 11:37:50;;;;;;;8.02;5.65;;;;;;;31.31;47.66;100607.00;4787432;29;20044;-82
2022/06/05 11:40:35;;;;;;;5.90;5.30;;;;;;;31.68;47.41;100600.84;4786025;29;20545;-82
2022/06/05 11:43:20;;;;;;;9.68;5.65;;;;;;;31.76;46.77;100608.81;4786946;29;20488;-85
2022/06/05 11:46:03;;;;;;;6.78;5.90;;;;;;;31.86;47.23;100594.97;4790504;29;20047;-82
2022/06/05 11:48:36;;;;;;;8.93;6.03;;;;;;;31.80;46.23;100599.47;4787444;29;20488;-81
2022/06/05 11:51:26;;;;;;;8.98;5.60;;;;;;;32.11;46.07;100591.72;4787200;29;20311;-82
2022/06/05 11:54:22;;;;;;;7.53;4.70;;;;;;;32.31;45.38;100593.81;4787139;29;20487;-81
2022/06/05 11:57:02;;;;;;;7.45;4.72;;;;;;;32.34;45.21;100595.00;4786119;29;20078;-82
2022/06/05 11:59:54;;;;;;;7.40;5.47;;;;;;;32.33;45.23;100593.38;4777927;29;20059;-82
2022/06/05 12:03:10;;;;;;;8.85;4.75;;;;;;;32.30;44.89;100581.69;4778491;29;20399;-82
2022/06/05 12:06:18;;;;;;;8.20;4.85;;;;;;;32.31;44.80;100588.16;4730594;30;20052;-81
2022/06/05 12:08:50;;;;;;;9.10;5.10;;;;;;;32.26;43.99;100588.66;4720570;30;20065;-81
2022/06/05 12:11:27;;;;;;;8.85;4.95;;;;;;;32.27;44.45;100584.59;4774968;29;20051;-82